createdAt,value
2017-11-23T00:00:05.903Z,5.47
2017-11-23T00:02:34.118Z,5.60
2017-11-23T00:05:01.612Z,6.20
2017-11-23T00:07:29.016Z,5.73
2017-11-23T00:09:56.439Z,5.60
2017-11-23T00:12:23.912Z,4.70
2017-11-23T00:14:51.320Z,4.80
2017-11-23T00:17:18.845Z,4.83
2017-11-23T00:19:46.260Z,5.00
2017-11-23T00:22:13.791Z,5.47
2017-11-23T00:24:41.216Z,4.90
2017-11-23T00:27:09.432Z,4.43
2017-11-23T00:29:36.848Z,4.93
2017-11-23T00:32:04.283Z,4.47
2017-11-23T00:34:31.719Z,4.40
2017-11-23T00:36:59.195Z,4.90
2017-11-23T00:39:26.683Z,5.00
2017-11-23T00:41:54.113Z,4.63
2017-11-23T00:44:22.324Z,5.20
2017-11-23T00:46:49.748Z,4.40
2017-11-23T00:49:17.168Z,5.60
2017-11-23T00:51:44.634Z,5.17
2017-11-23T00:54:12.793Z,4.60
2017-11-23T00:56:41.007Z,4.83
2017-11-23T00:59:08.475Z,5.13
2017-11-23T01:01:35.879Z,4.40
2017-11-23T01:04:03.311Z,4.43
2017-11-23T01:06:30.694Z,4.57
2017-11-23T01:08:58.110Z,5.00
2017-11-23T01:11:25.807Z,4.93
2017-11-23T01:13:53.222Z,4.90
2017-11-23T01:16:20.656Z,4.50
2017-11-23T01:18:48.070Z,3.93
2017-11-23T01:21:15.610Z,4.60
2017-11-23T01:23:43.889Z,4.50
2017-11-23T01:26:11.322Z,4.53
2017-11-23T01:28:39.499Z,4.60
2017-11-23T01:31:07.684Z,4.30
2017-11-23T01:33:35.185Z,4.10
2017-11-23T01:36:02.658Z,3.73
2017-11-23T01:38:30.121Z,4.37
2017-11-23T01:40:57.528Z,4.53
2017-11-23T01:43:24.959Z,4.30
2017-11-23T01:45:53.163Z,3.93
2017-11-23T01:48:20.589Z,4.47
2017-11-23T01:50:48.772Z,4.80
2017-11-23T01:53:16.196Z,4.40
2017-11-23T01:55:43.621Z,4.83
2017-11-23T01:58:11.791Z,4.70
2017-11-23T02:00:39.973Z,4.60
2017-11-23T02:03:07.482Z,4.40
2017-11-23T02:05:34.899Z,4.47
2017-11-23T02:08:02.410Z,3.80
2017-11-23T02:10:29.849Z,4.27
2017-11-23T02:12:57.259Z,4.43
2017-11-23T02:15:24.679Z,4.47
2017-11-23T02:17:52.083Z,4.00
2017-11-23T02:20:19.508Z,4.43
2017-11-23T02:22:46.933Z,3.80
2017-11-23T02:25:14.344Z,4.10
2017-11-23T02:27:41.763Z,4.60
2017-11-23T02:30:09.168Z,3.83
2017-11-23T02:32:36.590Z,4.70
2017-11-23T02:35:04.001Z,4.53
2017-11-23T02:37:31.436Z,4.13
2017-11-23T02:39:58.876Z,4.60
2017-11-23T02:42:27.078Z,4.43
2017-11-23T02:44:54.558Z,4.30
2017-11-23T02:47:21.970Z,4.23
2017-11-23T02:49:49.370Z,3.90
2017-11-23T02:52:17.580Z,4.13
2017-11-23T02:54:45.018Z,4.63
2017-11-23T02:57:13.191Z,4.77
2017-11-23T02:59:41.415Z,4.60
2017-11-23T03:02:08.874Z,4.00
2017-11-23T03:04:36.290Z,4.17
2017-11-23T03:07:03.716Z,4.30
2017-11-23T03:09:31.107Z,4.40
2017-11-23T03:11:58.530Z,4.47
2017-11-23T03:14:26.717Z,3.90
2017-11-23T03:16:54.896Z,4.63
2017-11-23T03:19:23.071Z,3.90
2017-11-23T03:21:50.486Z,4.10
2017-11-23T03:24:18.051Z,4.40
2017-11-23T03:26:45.485Z,4.53
2017-11-23T03:29:12.889Z,4.20
2017-11-23T03:31:40.298Z,3.80
2017-11-23T03:34:07.714Z,4.20
2017-11-23T03:36:35.147Z,4.73
2017-11-23T03:39:02.554Z,4.40
2017-11-23T03:41:29.977Z,5.07
2017-11-23T03:43:57.391Z,4.00
2017-11-23T03:46:24.864Z,3.93
2017-11-23T03:48:52.335Z,4.20
2017-11-23T03:51:19.821Z,4.17
2017-11-23T03:53:47.266Z,4.03
2017-11-23T03:56:14.764Z,4.47
2017-11-23T03:58:42.162Z,3.50
2017-11-23T04:01:09.695Z,4.10
2017-11-23T04:03:37.115Z,4.27
2017-11-23T04:06:05.332Z,4.23
2017-11-23T04:08:33.505Z,4.10
2017-11-23T04:11:00.979Z,3.83
2017-11-23T04:13:28.457Z,4.00
2017-11-23T04:15:55.847Z,4.07
2017-11-23T04:18:23.265Z,3.73
2017-11-23T04:20:51.447Z,3.80
2017-11-23T04:23:19.669Z,3.87
2017-11-23T04:25:47.102Z,3.97
2017-11-23T04:28:15.275Z,3.90
2017-11-23T04:30:42.682Z,3.97
2017-11-23T04:33:10.084Z,3.70
2017-11-23T04:35:37.496Z,4.30
2017-11-23T04:38:05.708Z,3.93
2017-11-23T04:40:33.101Z,3.90
2017-11-23T04:43:00.535Z,3.97
2017-11-23T04:45:27.960Z,4.77
2017-11-23T04:47:55.499Z,4.37
2017-11-23T04:50:22.909Z,4.40
2017-11-23T04:52:50.328Z,3.90
2017-11-23T04:55:17.750Z,4.63
2017-11-23T04:57:45.946Z,4.33
2017-11-23T05:00:14.263Z,4.23
2017-11-23T05:02:41.656Z,4.40
2017-11-23T05:05:09.095Z,4.10
2017-11-23T05:07:36.515Z,4.67
2017-11-23T05:10:03.926Z,3.90
2017-11-23T05:12:31.351Z,4.27
2017-11-23T05:14:58.758Z,4.30
2017-11-23T05:17:26.231Z,4.50
2017-11-23T05:19:53.705Z,4.20
2017-11-23T05:22:21.120Z,3.93
2017-11-23T05:24:49.157Z,4.10
2017-11-23T05:27:16.603Z,4.10
2017-11-23T05:29:44.835Z,4.30
2017-11-23T05:32:12.236Z,4.57
2017-11-23T05:34:39.649Z,4.40
2017-11-23T05:37:07.055Z,4.20
2017-11-23T05:39:34.487Z,4.80
2017-11-23T05:42:01.890Z,4.80
2017-11-23T05:44:29.304Z,4.63
2017-11-23T05:46:56.771Z,4.33
2017-11-23T05:49:24.203Z,5.10
2017-11-23T05:51:51.646Z,4.70
2017-11-23T05:54:19.092Z,4.80
2017-11-23T05:56:46.505Z,4.93
2017-11-23T05:59:13.927Z,4.97
2017-11-23T06:01:41.330Z,5.33
2017-11-23T06:04:08.735Z,4.93
2017-11-23T06:06:36.942Z,5.17
2017-11-23T06:09:04.416Z,5.20
2017-11-23T06:11:32.566Z,4.43
2017-11-23T06:14:00.744Z,5.40
2017-11-23T06:16:28.171Z,5.37
2017-11-23T06:18:55.617Z,5.60
2017-11-23T06:21:23.087Z,5.87
2017-11-23T06:23:50.560Z,5.77
2017-11-23T06:26:17.980Z,5.80
2017-11-23T06:28:45.399Z,5.97
2017-11-23T06:31:12.855Z,6.70
2017-11-23T06:33:41.036Z,5.47
2017-11-23T06:36:08.526Z,5.30
2017-11-23T06:38:35.923Z,5.53
2017-11-23T06:41:03.356Z,5.40
2017-11-23T06:43:30.772Z,5.70
2017-11-23T06:45:58.285Z,5.63
2017-11-23T06:48:25.703Z,5.57
2017-11-23T06:50:53.115Z,5.70
2017-11-23T06:53:20.529Z,6.13
2017-11-23T06:55:47.976Z,6.10
2017-11-23T06:58:15.437Z,5.60
2017-11-23T07:00:42.891Z,5.70
2017-11-23T07:03:10.308Z,6.20
2017-11-23T07:05:37.845Z,6.40
2017-11-23T07:08:06.002Z,6.47
2017-11-23T07:10:34.180Z,6.40
2017-11-23T07:13:02.361Z,5.70
2017-11-23T07:15:30.543Z,5.77
2017-11-23T07:18:00.517Z,6.27
2017-11-23T07:20:27.919Z,6.60
2017-11-23T07:22:55.315Z,5.70
2017-11-23T07:25:23.505Z,6.60
2017-11-23T07:27:51.705Z,5.80
2017-11-23T07:30:19.136Z,6.50
2017-11-23T07:32:46.644Z,5.20
2017-11-23T07:35:14.123Z,6.20
2017-11-23T07:37:41.525Z,5.87
2017-11-23T07:40:08.939Z,5.80
2017-11-23T07:42:37.152Z,6.40
2017-11-23T07:45:04.632Z,6.57
2017-11-23T07:47:32.050Z,5.23
2017-11-23T07:50:00.257Z,5.03
2017-11-23T07:52:27.662Z,6.23
2017-11-23T07:54:55.088Z,6.40
2017-11-23T07:57:22.576Z,5.70
2017-11-23T07:59:49.995Z,6.27
2017-11-23T08:02:17.504Z,5.57
2017-11-23T08:04:45.093Z,6.00
2017-11-23T08:07:12.479Z,7.67
2017-11-23T08:09:39.894Z,6.27
2017-11-23T08:12:08.097Z,6.43
2017-11-23T08:14:35.540Z,6.83
2017-11-23T08:17:03.715Z,5.53
2017-11-23T08:19:31.955Z,6.50
2017-11-23T08:21:59.373Z,5.73
2017-11-23T08:24:26.881Z,6.80
2017-11-23T08:26:54.349Z,6.30
2017-11-23T08:29:21.948Z,7.07
2017-11-23T08:31:49.364Z,5.23
2017-11-23T08:34:17.551Z,7.23
2017-11-23T08:36:44.975Z,6.53
2017-11-23T08:39:12.451Z,7.13
2017-11-23T08:41:39.907Z,7.10
2017-11-23T08:44:07.337Z,7.47
2017-11-23T08:46:34.855Z,7.13
2017-11-23T08:49:02.259Z,6.20
2017-11-23T08:51:29.787Z,7.90
2017-11-23T08:53:57.251Z,6.80
2017-11-23T08:56:24.681Z,6.87
2017-11-23T08:58:52.094Z,6.43
2017-11-23T09:01:19.510Z,7.97
2017-11-23T09:03:46.918Z,7.07
2017-11-23T09:06:14.338Z,6.63
2017-11-23T09:08:41.749Z,6.57
2017-11-23T09:11:09.923Z,6.43
2017-11-23T09:13:38.136Z,6.77
2017-11-23T09:16:05.608Z,6.63
2017-11-23T09:18:33.772Z,6.87
2017-11-23T09:21:01.973Z,6.57
2017-11-23T09:23:29.387Z,6.97
2017-11-23T09:25:56.899Z,7.07
2017-11-23T09:28:24.325Z,6.00
2017-11-23T09:30:51.741Z,7.03
2017-11-23T09:33:19.158Z,7.10
2017-11-23T09:35:46.590Z,6.40
2017-11-23T09:38:14.062Z,6.83
2017-11-23T09:40:41.524Z,7.10
2017-11-23T09:43:08.948Z,7.90
2017-11-23T09:45:36.467Z,7.37
2017-11-23T09:48:03.914Z,7.10
2017-11-23T09:50:32.325Z,7.40
2017-11-23T09:53:00.527Z,6.97
2017-11-23T09:55:27.940Z,7.40
2017-11-23T09:57:56.895Z,7.03
2017-11-23T10:00:24.365Z,6.67
2017-11-23T10:02:51.804Z,6.77
2017-11-23T10:05:19.967Z,7.70
2017-11-23T10:07:47.467Z,6.90
2017-11-23T10:10:14.886Z,7.47
2017-11-23T10:12:42.301Z,6.90
2017-11-23T10:15:09.757Z,6.60
2017-11-23T10:17:37.931Z,6.77
2017-11-23T10:20:06.109Z,7.57
2017-11-23T10:22:34.291Z,6.80
2017-11-23T10:25:03.272Z,6.77
2017-11-23T10:27:30.708Z,7.30
2017-11-23T10:29:58.137Z,6.70
2017-11-23T10:32:25.518Z,6.70
2017-11-23T10:34:53.716Z,6.00
2017-11-23T10:37:26.892Z,6.57
2017-11-23T10:39:55.112Z,5.87
2017-11-23T10:42:22.604Z,5.77
2017-11-23T10:44:50.036Z,5.90
2017-11-23T10:47:18.225Z,5.40
2017-11-23T10:49:46.429Z,5.17
2017-11-23T10:52:13.840Z,5.40
2017-11-23T10:54:41.340Z,5.60
2017-11-23T10:57:09.568Z,5.70
2017-11-23T10:59:36.962Z,4.60
2017-11-23T11:02:04.382Z,6.30
2017-11-23T11:04:31.804Z,5.23
2017-11-23T11:06:59.212Z,5.93
2017-11-23T11:09:26.649Z,5.77
2017-11-23T11:11:54.048Z,6.37
2017-11-23T11:14:21.452Z,5.40
2017-11-23T11:16:48.868Z,5.70
2017-11-23T11:19:17.078Z,5.93
2017-11-23T11:21:45.232Z,4.97
2017-11-23T11:24:13.410Z,5.63
2017-11-23T11:26:40.831Z,4.83
2017-11-23T11:29:08.253Z,5.23
2017-11-23T11:31:36.474Z,5.30
2017-11-23T11:34:03.907Z,5.40
2017-11-23T11:36:31.409Z,5.30
2017-11-23T11:38:58.832Z,5.40
2017-11-23T11:41:27.891Z,5.17
2017-11-23T11:43:55.350Z,4.80
2017-11-23T11:46:22.755Z,4.63
2017-11-23T11:48:50.184Z,5.33
2017-11-23T11:51:17.653Z,5.03
2017-11-23T11:53:45.059Z,5.40
2017-11-23T11:56:12.494Z,4.70
2017-11-23T11:58:39.966Z,4.80
2017-11-23T12:01:07.363Z,4.80
2017-11-23T12:03:34.805Z,5.07
2017-11-23T12:06:02.301Z,5.23
2017-11-23T12:08:29.836Z,4.93
2017-11-23T12:10:57.252Z,5.30
2017-11-23T12:13:24.680Z,4.97
2017-11-23T12:16:04.124Z,5.47
2017-11-23T12:18:34.462Z,5.10
2017-11-23T12:21:12.635Z,4.90
2017-11-23T12:23:44.985Z,4.80
2017-11-23T12:26:12.401Z,5.00
2017-11-23T12:28:51.779Z,4.57
2017-11-23T12:31:19.261Z,4.43
2017-11-23T12:33:46.726Z,4.47
2017-11-23T12:36:14.907Z,5.00
2017-11-23T12:38:42.372Z,4.40
2017-11-23T12:41:09.842Z,4.83
2017-11-23T12:43:37.417Z,4.70
2017-11-23T12:46:05.576Z,4.50
2017-11-23T12:48:33.748Z,5.00
2017-11-23T12:51:02.077Z,4.47
2017-11-23T12:53:30.239Z,4.43
2017-11-23T12:55:58.440Z,3.90
2017-11-23T12:58:25.886Z,4.50
2017-11-23T13:00:53.289Z,5.20
2017-11-23T13:03:20.744Z,4.90
2017-11-23T13:05:48.156Z,4.60
2017-11-23T13:08:15.581Z,4.20
2017-11-23T13:10:43.053Z,4.40
2017-11-23T13:13:10.462Z,4.57
2017-11-23T13:15:37.883Z,4.23
2017-11-23T13:18:05.367Z,4.80
2017-11-23T13:20:32.783Z,4.40
2017-11-23T13:23:00.187Z,4.50
2017-11-23T13:25:27.592Z,4.40
2017-11-23T13:27:55.004Z,4.70
2017-11-23T13:30:23.170Z,4.27
2017-11-23T13:32:50.694Z,4.37
2017-11-23T13:35:18.095Z,4.30
2017-11-23T13:37:45.524Z,4.40
2017-11-23T13:40:12.931Z,4.40
2017-11-23T13:42:40.353Z,4.83
2017-11-23T13:45:08.542Z,4.40
2017-11-23T13:47:36.120Z,3.43
2017-11-23T13:50:04.315Z,3.83
2017-11-23T13:52:31.773Z,4.30
2017-11-23T13:54:59.179Z,4.30
2017-11-23T13:57:26.604Z,3.77
2017-11-23T13:59:54.803Z,3.60
2017-11-23T14:02:22.262Z,3.63
2017-11-23T14:04:49.656Z,3.03
2017-11-23T14:07:17.081Z,3.63
2017-11-23T14:09:45.287Z,3.40
2017-11-23T14:12:12.744Z,3.17
2017-11-23T14:14:40.215Z,3.97
2017-11-23T14:17:07.639Z,3.93
2017-11-23T14:19:36.636Z,3.30
2017-11-23T14:22:04.046Z,3.37
2017-11-23T14:24:32.220Z,3.80
2017-11-23T14:27:00.398Z,3.83
2017-11-23T14:29:27.825Z,3.60
2017-11-23T14:31:55.226Z,4.60
2017-11-23T14:34:22.638Z,3.47
2017-11-23T14:36:50.105Z,3.40
2017-11-23T14:39:17.496Z,4.07
2017-11-23T14:41:44.931Z,3.60
2017-11-23T14:44:12.408Z,3.70
2017-11-23T14:46:40.696Z,3.53
2017-11-23T14:49:08.855Z,3.63
2017-11-23T14:51:36.396Z,3.40
2017-11-23T14:54:03.798Z,3.40
2017-11-23T14:56:31.979Z,3.63
2017-11-23T14:59:00.146Z,3.70
2017-11-23T15:01:27.557Z,3.87
2017-11-23T15:03:55.028Z,3.13
2017-11-23T15:06:23.187Z,3.73
2017-11-23T15:08:51.363Z,3.30
2017-11-23T15:11:18.768Z,3.43
2017-11-23T15:13:46.235Z,3.77
2017-11-23T15:16:13.694Z,3.20
2017-11-23T15:18:41.108Z,3.70
2017-11-23T15:21:08.523Z,2.90
2017-11-23T15:23:36.728Z,3.87
2017-11-23T15:26:04.151Z,4.13
2017-11-23T15:28:31.555Z,3.70
2017-11-23T15:30:59.016Z,3.87
2017-11-23T15:33:26.423Z,3.70
2017-11-23T15:35:53.862Z,4.00
2017-11-23T15:38:22.033Z,3.43
2017-11-23T15:40:50.206Z,4.30
2017-11-23T15:43:18.433Z,3.97
2017-11-23T15:45:45.891Z,4.10
2017-11-23T15:48:14.035Z,4.20
2017-11-23T15:50:41.454Z,4.30
2017-11-23T15:53:08.912Z,4.60
2017-11-23T15:55:36.391Z,4.00
2017-11-23T15:58:03.878Z,4.80
2017-11-23T16:00:31.361Z,4.50
2017-11-23T16:02:58.782Z,4.93
2017-11-23T16:05:26.259Z,4.70
2017-11-23T16:07:54.440Z,4.83
2017-11-23T16:10:21.908Z,4.70
2017-11-23T16:12:49.331Z,4.53
2017-11-23T16:15:16.737Z,4.50
2017-11-23T16:17:44.148Z,4.70
2017-11-23T16:20:11.705Z,4.30
2017-11-23T16:22:39.871Z,4.10
2017-11-23T16:25:07.300Z,4.50
2017-11-23T16:27:34.710Z,4.37
2017-11-23T16:30:02.200Z,4.83
2017-11-23T16:32:29.615Z,4.50
2017-11-23T16:34:57.779Z,4.20
2017-11-23T16:37:25.203Z,4.70
2017-11-23T16:39:52.600Z,4.90
2017-11-23T16:42:26.542Z,4.73
2017-11-23T16:44:56.887Z,4.47
2017-11-23T16:47:30.119Z,4.10
2017-11-23T16:49:57.948Z,4.50
2017-11-23T16:52:45.242Z,4.10
2017-11-23T16:55:19.064Z,5.10
2017-11-23T16:57:47.391Z,4.53
2017-11-23T17:00:33.544Z,4.90
2017-11-23T17:03:06.592Z,4.50
2017-11-23T17:05:39.936Z,4.60
2017-11-23T17:08:10.991Z,4.57
2017-11-23T17:10:44.844Z,4.30
2017-11-23T17:16:33.543Z,4.10
2017-11-23T17:19:01.543Z,3.83
2017-11-23T17:21:28.955Z,4.60
2017-11-23T17:23:56.375Z,4.80
2017-11-23T17:26:23.820Z,5.20
2017-11-23T17:28:51.239Z,4.87
2017-11-23T17:31:18.639Z,4.00
2017-11-23T17:33:46.843Z,4.07
2017-11-23T17:36:14.259Z,4.47
2017-11-23T17:38:41.687Z,4.53
2017-11-23T17:41:09.099Z,4.13
2017-11-23T17:43:36.543Z,4.50
2017-11-23T17:46:04.017Z,5.00
2017-11-23T17:48:31.460Z,4.97
2017-11-23T17:50:58.881Z,4.83
2017-11-23T17:53:26.407Z,6.27
2017-11-23T17:55:53.808Z,5.70
2017-11-23T17:58:21.333Z,5.53
2017-11-23T18:00:48.739Z,5.40
2017-11-23T18:03:16.161Z,5.50
2017-11-23T18:05:43.582Z,5.30
2017-11-23T18:08:11.000Z,4.50
2017-11-23T18:10:38.473Z,4.43
2017-11-23T18:13:05.911Z,3.63
2017-11-23T18:15:33.314Z,3.80
2017-11-23T18:18:00.718Z,3.40
2017-11-23T18:20:28.149Z,3.33
2017-11-23T18:22:55.551Z,2.60
2017-11-23T18:25:22.993Z,2.53
2017-11-23T18:27:50.385Z,2.50
2017-11-23T18:30:17.779Z,2.43
2017-11-23T18:32:45.212Z,1.93
2017-11-23T18:35:12.616Z,2.00
2017-11-23T18:37:40.036Z,2.17
2017-11-23T18:40:07.485Z,2.40
2017-11-23T18:42:34.962Z,2.37
2017-11-23T18:45:02.373Z,2.60
2017-11-23T18:47:29.790Z,2.33
2017-11-23T18:49:57.191Z,2.03
2017-11-23T18:52:24.604Z,2.20
2017-11-23T18:54:52.793Z,2.93
2017-11-23T18:57:20.996Z,3.00
2017-11-23T18:59:48.412Z,2.50
2017-11-23T19:02:15.845Z,2.23
2017-11-23T19:04:43.302Z,2.70
2017-11-23T19:07:10.708Z,2.10
2017-11-23T19:09:38.143Z,2.10
2017-11-23T19:12:05.554Z,2.37
2017-11-23T19:14:32.969Z,1.90
2017-11-23T19:17:00.438Z,2.50
2017-11-23T19:19:27.862Z,1.90
2017-11-23T19:21:55.295Z,2.10
2017-11-23T19:24:22.745Z,2.17
2017-11-23T19:26:50.150Z,1.87
2017-11-23T19:29:17.555Z,2.10
2017-11-23T19:31:45.754Z,1.93
2017-11-23T19:34:13.930Z,2.07
2017-11-23T19:36:42.113Z,2.07
2017-11-23T19:39:10.280Z,2.07
2017-11-23T19:41:37.708Z,1.83
2017-11-23T19:44:05.111Z,1.90
2017-11-23T19:46:32.633Z,2.00
2017-11-23T19:49:00.047Z,1.60
2017-11-23T19:51:27.467Z,1.70
2017-11-23T19:53:54.876Z,1.80
2017-11-23T19:56:22.409Z,1.80
2017-11-23T19:58:49.977Z,2.00
2017-11-23T20:01:18.132Z,2.03
2017-11-23T20:03:46.307Z,1.77
2017-11-23T20:06:14.493Z,1.73
2017-11-23T20:08:41.883Z,2.20
2017-11-23T20:11:10.071Z,2.10
2017-11-23T20:13:38.262Z,2.17
2017-11-23T20:16:05.675Z,2.10
2017-11-23T20:18:33.113Z,2.03
2017-11-23T20:21:00.539Z,1.70
2017-11-23T20:23:27.939Z,1.97
2017-11-23T20:25:55.395Z,2.20
2017-11-23T20:28:22.883Z,2.30
2017-11-23T20:30:50.294Z,2.50
2017-11-23T20:33:17.716Z,2.97
2017-11-23T20:35:45.123Z,2.50
2017-11-23T20:38:12.549Z,2.37
2017-11-23T20:40:40.018Z,2.20
2017-11-23T20:43:07.443Z,2.30
2017-11-23T20:45:34.867Z,1.87
2017-11-23T20:48:02.297Z,2.13
2017-11-23T20:50:30.476Z,2.50
2017-11-23T20:52:57.878Z,2.53
2017-11-23T20:55:25.459Z,2.80
2017-11-23T20:57:52.871Z,2.87
2017-11-23T21:00:20.281Z,2.33
2017-11-23T21:02:47.748Z,3.30
2017-11-23T21:05:15.531Z,2.67
2017-11-23T21:07:43.716Z,2.80
2017-11-23T21:10:11.876Z,2.90
2017-11-23T21:12:40.064Z,3.40
2017-11-23T21:15:08.267Z,3.30
2017-11-23T21:17:35.695Z,2.50
2017-11-23T21:20:03.207Z,2.97
2017-11-23T21:22:30.612Z,2.97
2017-11-23T21:24:58.040Z,3.07
2017-11-23T21:27:25.455Z,3.43
2017-11-23T21:29:52.977Z,3.30
2017-11-23T21:32:20.445Z,3.30
2017-11-23T21:34:47.859Z,3.27
2017-11-23T21:37:15.326Z,3.73
2017-11-23T21:39:42.736Z,3.10
2017-11-23T21:42:10.135Z,3.40
2017-11-23T21:44:37.573Z,3.10
2017-11-23T21:47:05.008Z,3.70
2017-11-23T21:49:32.415Z,3.00
2017-11-23T21:52:00.642Z,3.27
2017-11-23T21:54:28.065Z,3.50
2017-11-23T21:56:56.291Z,3.30
2017-11-23T21:59:23.734Z,2.70
2017-11-23T22:01:51.901Z,2.70
2017-11-23T22:04:19.310Z,2.50
2017-11-23T22:06:46.786Z,2.30
2017-11-23T22:09:14.938Z,2.37
2017-11-23T22:11:43.128Z,3.10
2017-11-23T22:14:11.322Z,2.67
2017-11-23T22:16:39.510Z,2.50
2017-11-23T22:19:07.712Z,2.40
2017-11-23T22:21:35.188Z,2.57
2017-11-23T22:24:02.610Z,2.40
2017-11-23T22:26:30.023Z,2.20
2017-11-23T22:28:57.428Z,2.60
2017-11-23T22:31:24.843Z,2.33
2017-11-23T22:33:52.316Z,2.40
2017-11-23T22:36:19.725Z,3.00
2017-11-23T22:38:47.142Z,3.07
2017-11-23T22:41:14.556Z,2.70
2017-11-23T22:43:41.972Z,2.63
2017-11-23T22:46:10.151Z,2.80
2017-11-23T22:48:38.340Z,2.50
2017-11-23T22:51:06.567Z,2.90
2017-11-23T22:53:34.030Z,2.80
2017-11-23T22:56:01.455Z,3.17
2017-11-23T22:58:29.645Z,3.00
2017-11-23T23:00:57.836Z,3.53
2017-11-23T23:03:26.019Z,3.90
2017-11-23T23:05:54.199Z,3.23
2017-11-23T23:08:22.372Z,4.10
2017-11-23T23:10:49.789Z,3.70
2017-11-23T23:13:17.202Z,3.50
2017-11-23T23:15:44.626Z,3.93
2017-11-23T23:18:12.025Z,3.50
2017-11-23T23:20:39.442Z,3.70
2017-11-23T23:23:06.868Z,3.90
2017-11-23T23:25:34.302Z,4.10
2017-11-23T23:28:01.757Z,3.07
2017-11-23T23:30:29.164Z,3.80
2017-11-23T23:32:56.590Z,3.00
2017-11-23T23:35:24.055Z,3.70
2017-11-23T23:37:51.534Z,3.50
2017-11-23T23:40:19.007Z,3.87
2017-11-23T23:42:46.419Z,4.30
2017-11-23T23:45:14.667Z,4.20
2017-11-23T23:47:42.932Z,3.60
2017-11-23T23:50:10.352Z,3.63
2017-11-23T23:52:37.912Z,3.20
2017-11-23T23:55:05.317Z,3.17
2017-11-23T23:57:32.827Z,2.90
